sensor_id;sensor_type;location;lat;lon;timestamp;P1;durP1;ratioP1;P2;durP2;ratioP2
42866;SDS011;39461;40.948;73.006;2022-08-30T00:00:03;11.25;;;3.13;;
42866;SDS011;39461;40.948;73.006;2022-08-30T00:03:02;8.15;;;2.72;;
42866;SDS011;39461;40.948;73.006;2022-08-30T00:05:40;9.75;;;2.95;;
42866;SDS011;39461;40.948;73.006;2022-08-30T00:08:16;8.65;;;3.03;;
42866;SDS011;39461;40.948;73.006;2022-08-30T00:10:50;8.20;;;3.08;;
42866;SDS011;39461;40.948;73.006;2022-08-30T00:13:25;10.50;;;3.05;;
42866;SDS011;39461;40.948;73.006;2022-08-30T00:16:05;14.75;;;3.50;;
42866;SDS011;39461;40.948;73.006;2022-08-30T00:18:44;13.80;;;3.15;;
42866;SDS011;39461;40.948;73.006;2022-08-30T00:21:19;8.38;;;3.05;;
42866;SDS011;39461;40.948;73.006;2022-08-30T00:23:45;12.52;;;3.38;;
42866;SDS011;39461;40.948;73.006;2022-08-30T00:26:20;13.00;;;3.80;;
42866;SDS011;39461;40.948;73.006;2022-08-30T00:28:55;8.75;;;3.13;;
42866;SDS011;39461;40.948;73.006;2022-08-30T00:31:31;8.85;;;3.70;;
42866;SDS011;39461;40.948;73.006;2022-08-30T00:34:06;11.15;;;3.60;;
42866;SDS011;39461;40.948;73.006;2022-08-30T00:36:41;11.77;;;3.17;;
42866;SDS011;39461;40.948;73.006;2022-08-30T00:39:19;11.93;;;3.42;;
42866;SDS011;39461;40.948;73.006;2022-08-30T00:41:46;10.80;;;2.95;;
42866;SDS011;39461;40.948;73.006;2022-08-30T00:44:21;16.70;;;3.55;;
42866;SDS011;39461;40.948;73.006;2022-08-30T00:46:57;12.30;;;2.88;;
42866;SDS011;39461;40.948;73.006;2022-08-30T00:52:30;9.25;;;3.10;;
42866;SDS011;39461;40.948;73.006;2022-08-30T00:54:59;10.20;;;3.35;;
42866;SDS011;39461;40.948;73.006;2022-08-30T00:57:30;11.85;;;3.28;;
42866;SDS011;39461;40.948;73.006;2022-08-30T01:00:08;7.05;;;3.10;;
42866;SDS011;39461;40.948;73.006;2022-08-30T01:02:44;14.57;;;3.58;;
42866;SDS011;39461;40.948;73.006;2022-08-30T01:05:19;14.02;;;3.00;;
42866;SDS011;39461;40.948;73.006;2022-08-30T01:07:54;10.75;;;3.78;;
42866;SDS011;39461;40.948;73.006;2022-08-30T01:10:30;8.95;;;3.63;;
42866;SDS011;39461;40.948;73.006;2022-08-30T01:13:09;15.73;;;3.88;;
42866;SDS011;39461;40.948;73.006;2022-08-30T01:15:46;11.75;;;3.17;;
42866;SDS011;39461;40.948;73.006;2022-08-30T01:18:21;21.95;;;3.30;;
42866;SDS011;39461;40.948;73.006;2022-08-30T01:23:43;12.73;;;3.50;;
42866;SDS011;39461;40.948;73.006;2022-08-30T01:26:21;15.23;;;3.90;;
42866;SDS011;39461;40.948;73.006;2022-08-30T01:28:58;14.93;;;4.68;;
42866;SDS011;39461;40.948;73.006;2022-08-30T01:31:38;13.02;;;4.80;;
42866;SDS011;39461;40.948;73.006;2022-08-30T01:34:12;10.80;;;5.00;;
42866;SDS011;39461;40.948;73.006;2022-08-30T01:36:47;17.48;;;5.93;;
42866;SDS011;39461;40.948;73.006;2022-08-30T01:39:23;26.98;;;9.50;;
42866;SDS011;39461;40.948;73.006;2022-08-30T01:41:58;27.92;;;8.55;;
42866;SDS011;39461;40.948;73.006;2022-08-30T01:44:34;24.02;;;6.50;;
42866;SDS011;39461;40.948;73.006;2022-08-30T01:47:06;35.78;;;7.10;;
42866;SDS011;39461;40.948;73.006;2022-08-30T01:49:40;33.70;;;6.63;;
42866;SDS011;39461;40.948;73.006;2022-08-30T01:52:09;20.92;;;6.03;;
42866;SDS011;39461;40.948;73.006;2022-08-30T01:54:44;31.90;;;7.07;;
42866;SDS011;39461;40.948;73.006;2022-08-30T01:57:21;20.90;;;6.00;;
42866;SDS011;39461;40.948;73.006;2022-08-30T02:00:00;31.48;;;6.00;;
42866;SDS011;39461;40.948;73.006;2022-08-30T02:02:37;22.85;;;5.65;;
42866;SDS011;39461;40.948;73.006;2022-08-30T02:05:11;20.15;;;5.40;;
42866;SDS011;39461;40.948;73.006;2022-08-30T02:07:46;18.73;;;5.57;;
42866;SDS011;39461;40.948;73.006;2022-08-30T02:13:20;12.85;;;4.70;;
42866;SDS011;39461;40.948;73.006;2022-08-30T02:15:55;18.02;;;5.35;;
42866;SDS011;39461;40.948;73.006;2022-08-30T02:18:28;20.20;;;5.22;;
42866;SDS011;39461;40.948;73.006;2022-08-30T02:21:07;27.20;;;5.95;;
42866;SDS011;39461;40.948;73.006;2022-08-30T02:23:35;15.77;;;5.57;;
42866;SDS011;39461;40.948;73.006;2022-08-30T02:26:08;21.98;;;5.32;;
42866;SDS011;39461;40.948;73.006;2022-08-30T02:28:43;22.33;;;5.68;;
42866;SDS011;39461;40.948;73.006;2022-08-30T02:31:19;18.13;;;5.47;;
42866;SDS011;39461;40.948;73.006;2022-08-30T02:33:54;19.73;;;6.65;;
42866;SDS011;39461;40.948;73.006;2022-08-30T02:36:27;20.52;;;8.27;;
42866;SDS011;39461;40.948;73.006;2022-08-30T02:39:08;23.50;;;7.43;;
42866;SDS011;39461;40.948;73.006;2022-08-30T02:41:36;27.20;;;7.35;;
42866;SDS011;39461;40.948;73.006;2022-08-30T02:44:11;15.65;;;6.40;;
42866;SDS011;39461;40.948;73.006;2022-08-30T02:46:47;28.98;;;7.20;;
42866;SDS011;39461;40.948;73.006;2022-08-30T02:49:21;26.17;;;6.45;;
42866;SDS011;39461;40.948;73.006;2022-08-30T02:51:55;22.48;;;6.90;;
42866;SDS011;39461;40.948;73.006;2022-08-30T02:54:35;35.45;;;7.15;;
42866;SDS011;39461;40.948;73.006;2022-08-30T02:57:08;25.77;;;6.35;;
42866;SDS011;39461;40.948;73.006;2022-08-30T02:59:45;20.77;;;5.80;;
42866;SDS011;39461;40.948;73.006;2022-08-30T03:02:20;24.05;;;7.25;;
42866;SDS011;39461;40.948;73.006;2022-08-30T03:04:55;31.35;;;8.82;;
42866;SDS011;39461;40.948;73.006;2022-08-30T03:07:29;26.88;;;7.78;;
42866;SDS011;39461;40.948;73.006;2022-08-30T03:09:58;20.15;;;7.00;;
42866;SDS011;39461;40.948;73.006;2022-08-30T03:12:33;18.52;;;6.60;;
42866;SDS011;39461;40.948;73.006;2022-08-30T03:15:06;20.52;;;7.03;;
42866;SDS011;39461;40.948;73.006;2022-08-30T03:17:42;15.30;;;5.63;;
42866;SDS011;39461;40.948;73.006;2022-08-30T03:20:18;14.95;;;6.00;;
42866;SDS011;39461;40.948;73.006;2022-08-30T03:22:48;29.55;;;6.82;;
42866;SDS011;39461;40.948;73.006;2022-08-30T03:25:21;19.05;;;5.93;;
42866;SDS011;39461;40.948;73.006;2022-08-30T03:27:56;22.08;;;6.80;;
42866;SDS011;39461;40.948;73.006;2022-08-30T03:30:40;24.33;;;9.65;;
42866;SDS011;39461;40.948;73.006;2022-08-30T03:33:17;34.30;;;10.27;;
42866;SDS011;39461;40.948;73.006;2022-08-30T03:35:51;32.63;;;18.67;;
42866;SDS011;39461;40.948;73.006;2022-08-30T03:38:24;33.17;;;25.33;;
42866;SDS011;39461;40.948;73.006;2022-08-30T03:40:57;21.92;;;8.05;;
42866;SDS011;39461;40.948;73.006;2022-08-30T03:43:33;20.15;;;7.18;;
42866;SDS011;39461;40.948;73.006;2022-08-30T03:46:08;20.70;;;5.10;;
42866;SDS011;39461;40.948;73.006;2022-08-30T03:48:42;11.15;;;4.07;;
42866;SDS011;39461;40.948;73.006;2022-08-30T03:51:20;14.60;;;4.00;;
42866;SDS011;39461;40.948;73.006;2022-08-30T03:53:55;17.52;;;3.22;;
42866;SDS011;39461;40.948;73.006;2022-08-30T03:56:34;13.52;;;3.65;;
42866;SDS011;39461;40.948;73.006;2022-08-30T03:59:08;12.65;;;3.72;;
42866;SDS011;39461;40.948;73.006;2022-08-30T04:04:41;16.38;;;4.10;;
42866;SDS011;39461;40.948;73.006;2022-08-30T04:07:18;11.63;;;3.90;;
42866;SDS011;39461;40.948;73.006;2022-08-30T04:09:50;14.07;;;3.85;;
42866;SDS011;39461;40.948;73.006;2022-08-30T04:12:26;16.20;;;4.10;;
42866;SDS011;39461;40.948;73.006;2022-08-30T04:15:01;12.15;;;3.72;;
42866;SDS011;39461;40.948;73.006;2022-08-30T04:17:35;16.83;;;4.00;;
42866;SDS011;39461;40.948;73.006;2022-08-30T04:20:15;20.60;;;4.57;;
42866;SDS011;39461;40.948;73.006;2022-08-30T04:22:44;18.92;;;4.47;;
42866;SDS011;39461;40.948;73.006;2022-08-30T04:25:14;10.52;;;4.20;;
42866;SDS011;39461;40.948;73.006;2022-08-30T04:27:50;13.70;;;4.20;;
42866;SDS011;39461;40.948;73.006;2022-08-30T04:30:23;14.10;;;4.78;;
42866;SDS011;39461;40.948;73.006;2022-08-30T04:32:56;16.77;;;4.18;;
42866;SDS011;39461;40.948;73.006;2022-08-30T04:35:29;16.30;;;3.97;;
42866;SDS011;39461;40.948;73.006;2022-08-30T04:38:04;12.93;;;4.88;;
42866;SDS011;39461;40.948;73.006;2022-08-30T04:40:42;19.10;;;4.90;;
42866;SDS011;39461;40.948;73.006;2022-08-30T04:43:25;25.70;;;7.38;;
42866;SDS011;39461;40.948;73.006;2022-08-30T04:46:05;18.05;;;5.20;;
42866;SDS011;39461;40.948;73.006;2022-08-30T04:48:41;20.40;;;4.63;;
42866;SDS011;39461;40.948;73.006;2022-08-30T04:51:16;13.98;;;5.18;;
42866;SDS011;39461;40.948;73.006;2022-08-30T04:56:50;15.27;;;4.88;;
42866;SDS011;39461;40.948;73.006;2022-08-30T04:59:23;12.40;;;5.00;;
42866;SDS011;39461;40.948;73.006;2022-08-30T05:01:56;16.15;;;5.03;;
42866;SDS011;39461;40.948;73.006;2022-08-30T05:04:30;17.17;;;6.00;;
42866;SDS011;39461;40.948;73.006;2022-08-30T05:07:05;25.73;;;6.35;;
42866;SDS011;39461;40.948;73.006;2022-08-30T05:09:38;16.95;;;5.57;;
42866;SDS011;39461;40.948;73.006;2022-08-30T05:12:11;17.88;;;6.00;;
42866;SDS011;39461;40.948;73.006;2022-08-30T05:14:46;18.55;;;5.80;;
42866;SDS011;39461;40.948;73.006;2022-08-30T05:17:15;15.25;;;6.10;;
42866;SDS011;39461;40.948;73.006;2022-08-30T05:19:50;23.50;;;7.40;;
42866;SDS011;39461;40.948;73.006;2022-08-30T05:22:25;20.63;;;6.60;;
42866;SDS011;39461;40.948;73.006;2022-08-30T05:25:03;23.90;;;7.20;;
42866;SDS011;39461;40.948;73.006;2022-08-30T05:27:37;23.73;;;7.70;;
42866;SDS011;39461;40.948;73.006;2022-08-30T05:30:10;15.95;;;7.38;;
42866;SDS011;39461;40.948;73.006;2022-08-30T05:32:49;27.88;;;8.13;;
42866;SDS011;39461;40.948;73.006;2022-08-30T05:35:20;20.48;;;7.90;;
42866;SDS011;39461;40.948;73.006;2022-08-30T05:37:54;19.85;;;7.72;;
42866;SDS011;39461;40.948;73.006;2022-08-30T05:40:26;23.30;;;7.68;;
42866;SDS011;39461;40.948;73.006;2022-08-30T05:42:57;22.67;;;6.75;;
42866;SDS011;39461;40.948;73.006;2022-08-30T05:45:30;25.83;;;7.60;;
42866;SDS011;39461;40.948;73.006;2022-08-30T05:51:05;23.58;;;10.55;;
42866;SDS011;39461;40.948;73.006;2022-08-30T05:53:41;22.90;;;8.50;;
42866;SDS011;39461;40.948;73.006;2022-08-30T05:56:22;30.85;;;18.13;;
42866;SDS011;39461;40.948;73.006;2022-08-30T05:59:02;41.70;;;15.10;;
42866;SDS011;39461;40.948;73.006;2022-08-30T06:01:57;24.40;;;7.68;;
42866;SDS011;39461;40.948;73.006;2022-08-30T06:04:31;21.25;;;8.45;;
42866;SDS011;39461;40.948;73.006;2022-08-30T06:07:11;25.63;;;7.75;;
42866;SDS011;39461;40.948;73.006;2022-08-30T06:09:45;18.85;;;8.55;;
42866;SDS011;39461;40.948;73.006;2022-08-30T06:12:18;25.50;;;7.05;;
42866;SDS011;39461;40.948;73.006;2022-08-30T06:14:52;20.65;;;7.28;;
42866;SDS011;39461;40.948;73.006;2022-08-30T06:17:27;21.48;;;7.07;;
42866;SDS011;39461;40.948;73.006;2022-08-30T06:20:00;15.52;;;7.00;;
42866;SDS011;39461;40.948;73.006;2022-08-30T06:22:33;25.55;;;8.77;;
42866;SDS011;39461;40.948;73.006;2022-08-30T06:25:02;28.50;;;7.70;;
42866;SDS011;39461;40.948;73.006;2022-08-30T06:27:37;21.88;;;7.50;;
42866;SDS011;39461;40.948;73.006;2022-08-30T06:30:11;20.58;;;7.15;;
42866;SDS011;39461;40.948;73.006;2022-08-30T06:32:40;19.15;;;7.07;;
42866;SDS011;39461;40.948;73.006;2022-08-30T06:35:07;23.92;;;7.30;;
42866;SDS011;39461;40.948;73.006;2022-08-30T06:37:42;17.25;;;5.88;;
42866;SDS011;39461;40.948;73.006;2022-08-30T06:40:17;22.10;;;7.22;;
42866;SDS011;39461;40.948;73.006;2022-08-30T06:42:54;26.10;;;9.57;;
42866;SDS011;39461;40.948;73.006;2022-08-30T06:45:23;27.42;;;8.02;;
42866;SDS011;39461;40.948;73.006;2022-08-30T06:47:51;18.42;;;7.22;;
42866;SDS011;39461;40.948;73.006;2022-08-30T06:53:28;19.23;;;6.78;;
42866;SDS011;39461;40.948;73.006;2022-08-30T06:56:04;23.30;;;7.18;;
42866;SDS011;39461;40.948;73.006;2022-08-30T06:58:41;16.60;;;6.50;;
42866;SDS011;39461;40.948;73.006;2022-08-30T07:01:21;18.15;;;6.72;;
42866;SDS011;39461;40.948;73.006;2022-08-30T07:03:53;12.88;;;4.85;;
42866;SDS011;39461;40.948;73.006;2022-08-30T07:06:29;10.63;;;4.57;;
42866;SDS011;39461;40.948;73.006;2022-08-30T07:09:04;12.18;;;5.05;;
42866;SDS011;39461;40.948;73.006;2022-08-30T07:11:39;23.20;;;7.40;;
42866;SDS011;39461;40.948;73.006;2022-08-30T07:14:14;16.23;;;6.03;;
42866;SDS011;39461;40.948;73.006;2022-08-30T07:16:48;16.35;;;5.18;;
42866;SDS011;39461;40.948;73.006;2022-08-30T07:19:14;19.83;;;6.25;;
42866;SDS011;39461;40.948;73.006;2022-08-30T07:21:48;22.33;;;6.65;;
42866;SDS011;39461;40.948;73.006;2022-08-30T07:24:21;22.13;;;6.43;;
42866;SDS011;39461;40.948;73.006;2022-08-30T07:26:57;26.60;;;6.30;;
42866;SDS011;39461;40.948;73.006;2022-08-30T07:29:29;17.98;;;5.70;;
42866;SDS011;39461;40.948;73.006;2022-08-30T07:32:02;17.60;;;5.82;;
42866;SDS011;39461;40.948;73.006;2022-08-30T07:34:35;22.52;;;6.07;;
42866;SDS011;39461;40.948;73.006;2022-08-30T07:37:08;27.75;;;6.45;;
42866;SDS011;39461;40.948;73.006;2022-08-30T07:39:41;13.65;;;5.50;;
42866;SDS011;39461;40.948;73.006;2022-08-30T07:42:14;18.48;;;5.07;;
42866;SDS011;39461;40.948;73.006;2022-08-30T07:44:49;18.45;;;4.80;;
42866;SDS011;39461;40.948;73.006;2022-08-30T07:47:23;18.08;;;5.38;;
42866;SDS011;39461;40.948;73.006;2022-08-30T07:49:57;15.23;;;5.22;;
42866;SDS011;39461;40.948;73.006;2022-08-30T07:52:39;15.85;;;5.15;;
42866;SDS011;39461;40.948;73.006;2022-08-30T07:55:15;15.25;;;5.20;;
42866;SDS011;39461;40.948;73.006;2022-08-30T08:00:46;14.70;;;4.82;;
42866;SDS011;39461;40.948;73.006;2022-08-30T08:03:21;14.50;;;4.82;;
42866;SDS011;39461;40.948;73.006;2022-08-30T08:05:48;12.05;;;4.63;;
42866;SDS011;39461;40.948;73.006;2022-08-30T08:08:15;18.83;;;5.30;;
42866;SDS011;39461;40.948;73.006;2022-08-30T08:10:45;21.98;;;5.57;;
42866;SDS011;39461;40.948;73.006;2022-08-30T08:13:13;13.70;;;4.40;;
42866;SDS011;39461;40.948;73.006;2022-08-30T08:15:42;16.38;;;5.35;;
42866;SDS011;39461;40.948;73.006;2022-08-30T08:18:17;27.40;;;6.28;;
42866;SDS011;39461;40.948;73.006;2022-08-30T08:20:54;25.05;;;7.15;;
42866;SDS011;39461;40.948;73.006;2022-08-30T08:23:20;18.95;;;6.88;;
42866;SDS011;39461;40.948;73.006;2022-08-30T08:25:54;16.95;;;5.97;;
42866;SDS011;39461;40.948;73.006;2022-08-30T08:28:29;24.88;;;7.90;;
42866;SDS011;39461;40.948;73.006;2022-08-30T08:31:16;39.38;;;7.53;;
42866;SDS011;39461;40.948;73.006;2022-08-30T08:33:47;25.27;;;7.28;;
42866;SDS011;39461;40.948;73.006;2022-08-30T08:36:20;21.55;;;6.68;;
42866;SDS011;39461;40.948;73.006;2022-08-30T08:50:53;17.50;;;7.30;;
42866;SDS011;39461;40.948;73.006;2022-08-30T08:53:51;23.25;;;6.93;;
42866;SDS011;39461;40.948;73.006;2022-08-30T08:56:31;20.10;;;6.53;;
42866;SDS011;39461;40.948;73.006;2022-08-30T08:59:07;25.50;;;7.90;;
42866;SDS011;39461;40.948;73.006;2022-08-30T09:01:42;19.38;;;7.07;;
42866;SDS011;39461;40.948;73.006;2022-08-30T09:04:12;22.13;;;7.22;;
42866;SDS011;39461;40.948;73.006;2022-08-30T09:06:54;19.70;;;7.65;;
42866;SDS011;39461;40.948;73.006;2022-08-30T09:09:36;24.60;;;6.57;;
42866;SDS011;39461;40.948;73.006;2022-08-30T09:12:06;19.38;;;6.75;;
42866;SDS011;39461;40.948;73.006;2022-08-30T09:18:22;20.42;;;7.22;;
42866;SDS011;39461;40.948;73.006;2022-08-30T09:20:42;23.52;;;8.07;;
42866;SDS011;39461;40.948;73.006;2022-08-30T09:23:22;25.27;;;7.72;;
42866;SDS011;39461;40.948;73.006;2022-08-30T09:29:02;55.42;;;9.77;;
42866;SDS011;39461;40.948;73.006;2022-08-30T09:32:11;20.00;;;7.28;;
42866;SDS011;39461;40.948;73.006;2022-08-30T09:34:51;20.02;;;7.40;;
42866;SDS011;39461;40.948;73.006;2022-08-30T09:37:29;19.90;;;7.72;;
42866;SDS011;39461;40.948;73.006;2022-08-30T09:40:08;27.00;;;8.13;;
42866;SDS011;39461;40.948;73.006;2022-08-30T09:43:02;24.30;;;7.95;;
42866;SDS011;39461;40.948;73.006;2022-08-30T09:45:41;21.02;;;7.13;;
42866;SDS011;39461;40.948;73.006;2022-08-30T09:48:21;28.55;;;8.70;;
42866;SDS011;39461;40.948;73.006;2022-08-30T09:53:49;25.85;;;10.45;;
42866;SDS011;39461;40.948;73.006;2022-08-30T09:56:29;18.70;;;9.13;;
42866;SDS011;39461;40.948;73.006;2022-08-30T09:59:24;32.03;;;11.05;;
42866;SDS011;39461;40.948;73.006;2022-08-30T10:11:26;30.70;;;8.68;;
42866;SDS011;39461;40.948;73.006;2022-08-30T10:14:31;29.83;;;9.65;;
42866;SDS011;39461;40.948;73.006;2022-08-30T10:16:55;27.13;;;9.02;;
42866;SDS011;39461;40.948;73.006;2022-08-30T10:23:05;27.85;;;8.85;;
42866;SDS011;39461;40.948;73.006;2022-08-30T10:28:27;23.92;;;8.55;;
42866;SDS011;39461;40.948;73.006;2022-08-30T10:31:24;29.23;;;9.02;;
42866;SDS011;39461;40.948;73.006;2022-08-30T10:34:26;31.55;;;10.25;;
42866;SDS011;39461;40.948;73.006;2022-08-30T10:37:22;30.73;;;9.35;;
42866;SDS011;39461;40.948;73.006;2022-08-30T10:40:12;29.10;;;8.52;;
42866;SDS011;39461;40.948;73.006;2022-08-30T10:43:20;27.45;;;8.82;;
42866;SDS011;39461;40.948;73.006;2022-08-30T10:49:07;25.73;;;8.80;;
42866;SDS011;39461;40.948;73.006;2022-08-30T10:54:47;24.90;;;8.60;;
42866;SDS011;39461;40.948;73.006;2022-08-30T10:57:20;24.80;;;8.07;;
42866;SDS011;39461;40.948;73.006;2022-08-30T11:00:09;21.02;;;8.32;;
42866;SDS011;39461;40.948;73.006;2022-08-30T11:08:40;23.42;;;7.72;;
42866;SDS011;39461;40.948;73.006;2022-08-30T11:14:21;25.00;;;5.97;;
42866;SDS011;39461;40.948;73.006;2022-08-30T11:16:58;21.95;;;6.63;;
42866;SDS011;39461;40.948;73.006;2022-08-30T11:19:37;19.55;;;6.25;;
42866;SDS011;39461;40.948;73.006;2022-08-30T11:22:12;24.67;;;6.32;;
42866;SDS011;39461;40.948;73.006;2022-08-30T11:25:09;26.27;;;7.78;;
42866;SDS011;39461;40.948;73.006;2022-08-30T11:27:53;20.05;;;7.57;;
42866;SDS011;39461;40.948;73.006;2022-08-30T11:33:05;20.00;;;7.07;;
42866;SDS011;39461;40.948;73.006;2022-08-30T11:35:57;18.52;;;7.13;;
42866;SDS011;39461;40.948;73.006;2022-08-30T11:41:07;19.90;;;5.95;;
42866;SDS011;39461;40.948;73.006;2022-08-30T11:47:00;23.75;;;6.57;;
42866;SDS011;39461;40.948;73.006;2022-08-30T11:52:53;28.38;;;7.15;;
42866;SDS011;39461;40.948;73.006;2022-08-30T11:55:38;27.88;;;7.18;;
42866;SDS011;39461;40.948;73.006;2022-08-30T11:58:29;24.30;;;7.70;;
42866;SDS011;39461;40.948;73.006;2022-08-30T12:04:04;25.67;;;7.50;;
42866;SDS011;39461;40.948;73.006;2022-08-30T12:06:58;19.15;;;7.00;;
42866;SDS011;39461;40.948;73.006;2022-08-30T12:14:59;21.92;;;6.68;;
42866;SDS011;39461;40.948;73.006;2022-08-30T12:20:46;21.42;;;6.90;;
42866;SDS011;39461;40.948;73.006;2022-08-30T12:23:18;23.38;;;7.40;;
42866;SDS011;39461;40.948;73.006;2022-08-30T12:26:16;20.52;;;6.75;;
42866;SDS011;39461;40.948;73.006;2022-08-30T12:29:09;24.13;;;7.60;;
42866;SDS011;39461;40.948;73.006;2022-08-30T12:31:51;21.85;;;7.25;;
42866;SDS011;39461;40.948;73.006;2022-08-30T12:40:05;18.58;;;7.32;;
42866;SDS011;39461;40.948;73.006;2022-08-30T12:42:52;20.25;;;7.43;;
42866;SDS011;39461;40.948;73.006;2022-08-30T12:45:35;25.98;;;7.18;;
42866;SDS011;39461;40.948;73.006;2022-08-30T12:48:12;18.75;;;7.30;;
42866;SDS011;39461;40.948;73.006;2022-08-30T12:50:52;24.00;;;8.23;;
42866;SDS011;39461;40.948;73.006;2022-08-30T12:56:09;27.58;;;7.63;;
42866;SDS011;39461;40.948;73.006;2022-08-30T12:58:42;19.42;;;7.80;;
42866;SDS011;39461;40.948;73.006;2022-08-30T13:04:17;23.70;;;7.38;;
42866;SDS011;39461;40.948;73.006;2022-08-30T13:06:56;15.10;;;6.43;;
42866;SDS011;39461;40.948;73.006;2022-08-30T13:09:39;15.20;;;5.80;;
42866;SDS011;39461;40.948;73.006;2022-08-30T13:12:22;14.55;;;5.07;;
42866;SDS011;39461;40.948;73.006;2022-08-30T13:15:16;17.10;;;5.05;;
42866;SDS011;39461;40.948;73.006;2022-08-30T13:23:44;16.98;;;5.28;;
42866;SDS011;39461;40.948;73.006;2022-08-30T13:26:13;17.65;;;5.18;;
42866;SDS011;39461;40.948;73.006;2022-08-30T13:28:49;16.05;;;5.30;;
42866;SDS011;39461;40.948;73.006;2022-08-30T13:31:30;16.58;;;5.60;;
42866;SDS011;39461;40.948;73.006;2022-08-30T13:34:03;41.65;;;6.35;;
42866;SDS011;39461;40.948;73.006;2022-08-30T13:36:38;22.50;;;6.20;;
42866;SDS011;39461;40.948;73.006;2022-08-30T13:39:18;22.38;;;7.00;;
42866;SDS011;39461;40.948;73.006;2022-08-30T13:41:51;19.25;;;5.65;;
42866;SDS011;39461;40.948;73.006;2022-08-30T13:44:26;36.88;;;6.72;;
42866;SDS011;39461;40.948;73.006;2022-08-30T13:47:04;28.77;;;5.63;;
42866;SDS011;39461;40.948;73.006;2022-08-30T13:49:39;22.13;;;6.32;;
42866;SDS011;39461;40.948;73.006;2022-08-30T13:52:18;20.45;;;5.57;;
42866;SDS011;39461;40.948;73.006;2022-08-30T13:54:58;16.35;;;5.75;;
42866;SDS011;39461;40.948;73.006;2022-08-30T13:57:32;21.42;;;5.35;;
42866;SDS011;39461;40.948;73.006;2022-08-30T14:00:09;31.83;;;6.25;;
42866;SDS011;39461;40.948;73.006;2022-08-30T14:02:48;23.92;;;6.85;;
42866;SDS011;39461;40.948;73.006;2022-08-30T14:05:29;33.78;;;7.10;;
42866;SDS011;39461;40.948;73.006;2022-08-30T14:08:06;40.58;;;9.40;;
42866;SDS011;39461;40.948;73.006;2022-08-30T14:10:42;43.08;;;10.43;;
42866;SDS011;39461;40.948;73.006;2022-08-30T14:13:17;41.42;;;10.48;;
42866;SDS011;39461;40.948;73.006;2022-08-30T14:15:44;51.08;;;10.32;;
42866;SDS011;39461;40.948;73.006;2022-08-30T14:18:21;44.38;;;10.20;;
42866;SDS011;39461;40.948;73.006;2022-08-30T14:20:56;37.65;;;9.57;;
42866;SDS011;39461;40.948;73.006;2022-08-30T14:23:27;41.20;;;10.68;;
42866;SDS011;39461;40.948;73.006;2022-08-30T14:26:02;37.25;;;9.63;;
42866;SDS011;39461;40.948;73.006;2022-08-30T14:28:44;46.08;;;11.00;;
42866;SDS011;39461;40.948;73.006;2022-08-30T14:31:13;107.32;;;29.17;;
42866;SDS011;39461;40.948;73.006;2022-08-30T14:33:47;82.13;;;28.20;;
42866;SDS011;39461;40.948;73.006;2022-08-30T14:36:20;85.68;;;27.67;;
42866;SDS011;39461;40.948;73.006;2022-08-30T14:38:53;94.35;;;34.20;;
42866;SDS011;39461;40.948;73.006;2022-08-30T14:41:26;110.07;;;51.08;;
42866;SDS011;39461;40.948;73.006;2022-08-30T14:43:59;81.70;;;40.40;;
42866;SDS011;39461;40.948;73.006;2022-08-30T14:46:33;85.90;;;36.38;;
42866;SDS011;39461;40.948;73.006;2022-08-30T14:49:08;88.18;;;35.35;;
42866;SDS011;39461;40.948;73.006;2022-08-30T14:51:44;82.30;;;33.15;;
42866;SDS011;39461;40.948;73.006;2022-08-30T14:54:23;73.13;;;30.02;;
42866;SDS011;39461;40.948;73.006;2022-08-30T14:56:55;78.22;;;27.73;;
42866;SDS011;39461;40.948;73.006;2022-08-30T14:59:30;70.45;;;26.77;;
42866;SDS011;39461;40.948;73.006;2022-08-30T15:05:06;78.00;;;28.63;;
42866;SDS011;39461;40.948;73.006;2022-08-30T15:07:41;78.35;;;27.70;;
42866;SDS011;39461;40.948;73.006;2022-08-30T15:10:16;65.80;;;27.55;;
42866;SDS011;39461;40.948;73.006;2022-08-30T15:12:53;75.15;;;29.92;;
42866;SDS011;39461;40.948;73.006;2022-08-30T15:18:18;49.95;;;16.15;;
42866;SDS011;39461;40.948;73.006;2022-08-30T15:20:51;47.92;;;14.80;;
42866;SDS011;39461;40.948;73.006;2022-08-30T15:23:24;43.22;;;14.32;;
42866;SDS011;39461;40.948;73.006;2022-08-30T15:26:01;35.13;;;12.95;;
42866;SDS011;39461;40.948;73.006;2022-08-30T15:28:36;43.90;;;14.20;;
42866;SDS011;39461;40.948;73.006;2022-08-30T15:31:09;33.08;;;13.40;;
42866;SDS011;39461;40.948;73.006;2022-08-30T15:33:42;37.45;;;14.25;;
42866;SDS011;39461;40.948;73.006;2022-08-30T15:36:15;54.22;;;15.13;;
42866;SDS011;39461;40.948;73.006;2022-08-30T15:38:48;43.60;;;16.38;;
42866;SDS011;39461;40.948;73.006;2022-08-30T15:41:18;43.15;;;16.67;;
42866;SDS011;39461;40.948;73.006;2022-08-30T15:43:54;42.80;;;15.35;;
42866;SDS011;39461;40.948;73.006;2022-08-30T15:46:31;43.40;;;14.60;;
42866;SDS011;39461;40.948;73.006;2022-08-30T15:49:07;40.80;;;11.95;;
42866;SDS011;39461;40.948;73.006;2022-08-30T15:51:46;35.42;;;12.32;;
42866;SDS011;39461;40.948;73.006;2022-08-30T15:54:21;36.38;;;11.60;;
42866;SDS011;39461;40.948;73.006;2022-08-30T15:56:54;37.90;;;8.90;;
42866;SDS011;39461;40.948;73.006;2022-08-30T15:59:26;31.58;;;8.18;;
42866;SDS011;39461;40.948;73.006;2022-08-30T16:02:02;31.77;;;6.93;;
42866;SDS011;39461;40.948;73.006;2022-08-30T16:04:37;35.20;;;6.55;;
42866;SDS011;39461;40.948;73.006;2022-08-30T16:07:12;28.75;;;6.47;;
42866;SDS011;39461;40.948;73.006;2022-08-30T16:09:47;25.98;;;6.85;;
42866;SDS011;39461;40.948;73.006;2022-08-30T16:12:14;34.58;;;6.93;;
42866;SDS011;39461;40.948;73.006;2022-08-30T16:17:47;29.25;;;6.05;;
42866;SDS011;39461;40.948;73.006;2022-08-30T16:20:24;28.45;;;5.43;;
42866;SDS011;39461;40.948;73.006;2022-08-30T16:22:53;30.48;;;5.38;;
42866;SDS011;39461;40.948;73.006;2022-08-30T16:25:21;27.02;;;6.07;;
42866;SDS011;39461;40.948;73.006;2022-08-30T16:27:56;22.13;;;5.95;;
42866;SDS011;39461;40.948;73.006;2022-08-30T16:30:31;24.92;;;5.00;;
42866;SDS011;39461;40.948;73.006;2022-08-30T16:33:06;38.55;;;5.28;;
42866;SDS011;39461;40.948;73.006;2022-08-30T16:35:41;23.70;;;4.80;;
42866;SDS011;39461;40.948;73.006;2022-08-30T16:38:16;19.25;;;4.45;;
42866;SDS011;39461;40.948;73.006;2022-08-30T16:40:51;24.75;;;4.65;;
42866;SDS011;39461;40.948;73.006;2022-08-30T16:43:26;24.00;;;4.82;;
42866;SDS011;39461;40.948;73.006;2022-08-30T16:46:02;16.33;;;5.47;;
42866;SDS011;39461;40.948;73.006;2022-08-30T16:48:39;17.40;;;4.97;;
42866;SDS011;39461;40.948;73.006;2022-08-30T16:51:08;22.17;;;5.22;;
42866;SDS011;39461;40.948;73.006;2022-08-30T16:53:45;16.48;;;5.38;;
42866;SDS011;39461;40.948;73.006;2022-08-30T16:56:23;27.55;;;6.68;;
42866;SDS011;39461;40.948;73.006;2022-08-30T16:58:59;29.67;;;6.13;;
42866;SDS011;39461;40.948;73.006;2022-08-30T17:01:26;15.85;;;5.30;;
42866;SDS011;39461;40.948;73.006;2022-08-30T17:04:02;19.80;;;5.72;;
42866;SDS011;39461;40.948;73.006;2022-08-30T17:06:38;17.88;;;5.57;;
42866;SDS011;39461;40.948;73.006;2022-08-30T17:09:13;24.42;;;5.40;;
42866;SDS011;39461;40.948;73.006;2022-08-30T17:11:47;19.67;;;5.07;;
42866;SDS011;39461;40.948;73.006;2022-08-30T17:14:23;19.45;;;5.38;;
42866;SDS011;39461;40.948;73.006;2022-08-30T17:16:58;11.40;;;4.20;;